Time;durP1;ratioP1;P1;durP2;ratioP2;P2;SDS_P1;SDS_P2;PMS_P1;PMS_P2;Temp;Humidity;BMP_temperature;BMP_pressure;BME280_temperature;BME280_humidity;BME280_pressure;Samples;Min_cycle;Max_cycle;Signal;HPM_P1;HPM_P2
2023/01/04 00:02:09;;;;;;;12.00;10.90;;;;;;;;;;5061168;28;20553;-74
2023/01/04 00:04:37;;;;;;;11.93;10.83;;;;;;;;;;5060073;28;20509;-74
2023/01/04 00:07:04;;;;;;;11.30;10.20;;;;;;;;;;5056119;28;20429;-75
2023/01/04 00:09:31;;;;;;;12.00;10.80;;;;;;;;;;5052801;28;20441;-74
2023/01/04 00:11:58;;;;;;;11.80;10.70;;;;;;;;;;5052141;28;20484;-75
2023/01/04 00:14:25;;;;;;;12.00;10.83;;;;;;;;;;5048349;28;20478;-74
2023/01/04 00:16:52;;;;;;;11.93;10.83;;;;;;;;;;5032532;28;20447;-75
2023/01/04 00:19:19;;;;;;;11.33;10.33;;;;;;;;;;5032057;28;20465;-75
2023/01/04 00:21:48;;;;;;;11.73;10.60;;;;;;;;;;5032342;28;20456;-75
2023/01/04 00:24:15;;;;;;;13.37;12.07;;;;;;;;;;5032559;28;20860;-75
2023/01/04 00:26:42;;;;;;;12.13;10.93;;;;;;;;;;5032222;28;20949;-73
2023/01/04 00:29:11;;;;;;;11.47;10.37;;;;;;;;;;5032367;28;21024;-74
2023/01/04 00:31:39;;;;;;;13.10;11.80;;;;;;;;;;5032029;28;20453;-75
2023/01/04 00:34:06;;;;;;;12.00;10.80;;;;;;;;;;5032229;28;20957;-75
2023/01/04 00:36:33;;;;;;;11.43;10.43;;;;;;;;;;5031997;28;21003;-74
2023/01/04 00:39:10;;;;;;;12.07;10.90;;;;;;;;;;5032560;28;20488;-74
2023/01/04 00:41:38;;;;;;;12.13;10.70;;;;;;;;;;5032984;28;20488;-74
2023/01/04 00:44:05;;;;;;;11.77;10.57;;;;;;;;;;5033360;28;20446;-74
2023/01/04 00:46:33;;;;;;;11.50;10.33;;;;;;;;;;5034838;28;20811;-74
2023/01/04 00:49:00;;;;;;;11.10;10.10;;;;;;;;;;5033838;28;21015;-74
2023/01/04 00:51:28;;;;;;;11.10;10.00;;;;;;;;;;5031868;28;20457;-74
2023/01/04 00:53:55;;;;;;;10.33;9.33;;;;;;;;;;5031619;28;20454;-73
2023/01/04 00:56:23;;;;;;;11.73;10.63;;;;;;;;;;5031905;28;20486;-73
2023/01/04 00:58:54;;;;;;;11.23;10.03;;;;;;;;;;5031904;28;20508;-74
2023/01/04 01:01:21;;;;;;;10.03;9.00;;;;;;;;;;5033931;28;20446;-75
2023/01/04 01:03:48;;;;;;;12.73;9.90;;;;;;;;;;5032393;28;20456;-74
2023/01/04 01:06:16;;;;;;;9.83;8.93;;;;;;;;;;5033441;28;20482;-74
2023/01/04 01:08:43;;;;;;;10.17;9.27;;;;;;;;;;5033188;28;20494;-74
2023/01/04 01:11:10;;;;;;;9.60;8.60;;;;;;;;;;5030284;28;20450;-74
2023/01/04 01:13:39;;;;;;;10.33;9.27;;;;;;;;;;5031393;28;20445;-75
2023/01/04 01:16:07;;;;;;;10.27;9.27;;;;;;;;;;5031495;28;20484;-75
2023/01/04 01:18:34;;;;;;;9.93;8.90;;;;;;;;;;5030973;28;20829;-74
2023/01/04 01:21:04;;;;;;;10.53;9.47;;;;;;;;;;5031133;28;20510;-75
2023/01/04 01:23:31;;;;;;;9.93;9.00;;;;;;;;;;5030790;28;20450;-75
2023/01/04 01:26:00;;;;;;;10.10;9.10;;;;;;;;;;5031477;28;20454;-75
2023/01/04 01:28:28;;;;;;;10.80;9.23;;;;;;;;;;5030712;28;20508;-74
2023/01/04 01:30:58;;;;;;;10.13;9.07;;;;;;;;;;5031380;28;20516;-75
2023/01/04 01:33:25;;;;;;;10.60;9.70;;;;;;;;;;5030577;28;20450;-74
2023/01/04 01:35:52;;;;;;;9.67;8.73;;;;;;;;;;5030775;28;20536;-75
2023/01/04 01:38:19;;;;;;;10.10;9.10;;;;;;;;;;5030723;28;20505;-75
2023/01/04 01:40:46;;;;;;;11.37;10.27;;;;;;;;;;5030868;28;20462;-75
2023/01/04 01:43:17;;;;;;;8.90;8.10;;;;;;;;;;5030936;28;20457;-74
2023/01/04 01:45:44;;;;;;;9.70;8.40;;;;;;;;;;5030885;28;20453;-75
2023/01/04 01:48:15;;;;;;;10.17;9.10;;;;;;;;;;5030588;28;20535;-75
2023/01/04 01:50:45;;;;;;;8.17;7.43;;;;;;;;;;5030603;28;20515;-74
2023/01/04 01:53:12;;;;;;;8.60;7.70;;;;;;;;;;5030233;28;20450;-76
2023/01/04 01:55:41;;;;;;;9.40;8.50;;;;;;;;;;5030510;28;20481;-76
2023/01/04 01:58:09;;;;;;;9.10;8.20;;;;;;;;;;5036585;28;20473;-75
2023/01/04 02:00:36;;;;;;;9.67;8.77;;;;;;;;;;5043885;28;20474;-73
2023/01/04 02:03:10;;;;;;;10.60;8.07;;;;;;;;;;5054184;28;20434;-73
2023/01/04 02:05:39;;;;;;;9.10;8.30;;;;;;;;;;5052859;28;20445;-74
2023/01/04 02:08:06;;;;;;;9.43;8.57;;;;;;;;;;5031478;28;20478;-75
2023/01/04 02:10:33;;;;;;;8.57;7.77;;;;;;;;;;5030722;28;20449;-74
2023/01/04 02:13:03;;;;;;;7.80;7.00;;;;;;;;;;5030382;28;20454;-75
2023/01/04 02:15:32;;;;;;;9.50;8.60;;;;;;;;;;5042422;28;20566;-75
2023/01/04 02:18:03;;;;;;;7.70;7.00;;;;;;;;;;5049889;28;20465;-73
2023/01/04 02:20:36;;;;;;;7.77;7.10;;;;;;;;;;5050143;28;20437;-75
2023/01/04 02:23:16;;;;;;;9.83;8.93;;;;;;;;;;5049848;28;20449;-74
2023/01/04 02:26:00;;;;;;;8.23;7.43;;;;;;;;;;5049851;28;20437;-73
2023/01/04 02:28:32;;;;;;;8.57;7.77;;;;;;;;;;5018557;28;20524;-74
2023/01/04 02:31:16;;;;;;;9.40;7.03;;;;;;;;;;5050012;28;20441;-74
2023/01/04 02:33:47;;;;;;;8.50;7.80;;;;;;;;;;5049446;28;20449;-74
2023/01/04 02:36:18;;;;;;;8.23;7.43;;;;;;;;;;5049289;28;20485;-74
2023/01/04 02:38:55;;;;;;;8.27;7.47;;;;;;;;;;5049520;28;20487;-74
2023/01/04 02:41:24;;;;;;;7.70;6.90;;;;;;;;;;5049789;28;20448;-74
2023/01/04 02:46:42;;;;;;;7.77;6.97;;;;;;;;;;5049806;28;20428;-73
2023/01/04 02:51:53;;;;;;;7.00;6.30;;;;;;;;;;5049843;28;20420;-75
2023/01/04 02:54:23;;;;;;;7.87;7.07;;;;;;;;;;5049660;28;20446;-75
2023/01/04 02:56:55;;;;;;;7.70;6.90;;;;;;;;;;5049445;28;20571;-73
2023/01/04 02:59:39;;;;;;;7.17;6.47;;;;;;;;;;5049741;28;20464;-75
2023/01/04 03:07:50;;;;;;;6.57;5.97;;;;;;;;;;5049133;28;20445;-74
2023/01/04 03:10:19;;;;;;;7.90;7.10;;;;;;;;;;5049182;28;20514;-74
2023/01/04 03:12:49;;;;;;;6.60;6.10;;;;;;;;;;5048994;28;20426;-74
2023/01/04 03:15:18;;;;;;;7.33;6.63;;;;;;;;;;5038700;28;20449;-74
2023/01/04 03:17:48;;;;;;;7.30;6.60;;;;;;;;;;5029360;28;20473;-75
2023/01/04 03:20:17;;;;;;;6.67;6.07;;;;;;;;;;5029380;28;20446;-74
2023/01/04 03:36:48;;;;;;;6.50;6.00;;;;;;;;;;5012435;28;20532;-74
2023/01/04 03:50:31;;;;;;;6.90;6.20;;;;;;;;;;5033820;28;20467;-74
2023/01/04 03:52:59;;;;;;;6.73;6.00;;;;;;;;;;5041065;28;20485;-73
2023/01/04 03:55:28;;;;;;;6.77;6.13;;;;;;;;;;5036571;28;20954;-74
2023/01/04 03:57:55;;;;;;;6.20;5.60;;;;;;;;;;5037540;28;20473;-74
2023/01/04 04:00:22;;;;;;;5.90;5.40;;;;;;;;;;5041015;28;20453;-73
2023/01/04 04:02:49;;;;;;;6.40;5.83;;;;;;;;;;5034234;28;20556;-74
2023/01/04 04:10:49;;;;;;;5.83;5.00;;;;;;;;;;5052014;28;20471;-75
2023/01/04 04:13:16;;;;;;;5.23;4.73;;;;;;;;;;5051786;28;20445;-74
2023/01/04 04:15:43;;;;;;;5.33;4.83;;;;;;;;;;5052103;28;20484;-75
2023/01/04 04:18:10;;;;;;;5.37;4.90;;;;;;;;;;5052189;28;20469;-74
2023/01/04 04:20:37;;;;;;;4.17;3.77;;;;;;;;;;5051917;28;20457;-74
2023/01/04 04:23:06;;;;;;;4.90;4.30;;;;;;;;;;5052008;28;20472;-74
2023/01/04 04:25:33;;;;;;;5.50;5.00;;;;;;;;;;5052056;28;20461;-73
2023/01/04 04:28:00;;;;;;;5.20;4.80;;;;;;;;;;5051695;28;20502;-74
2023/01/04 04:30:27;;;;;;;4.53;4.23;;;;;;;;;;5051950;28;20456;-74
2023/01/04 04:32:54;;;;;;;4.70;4.30;;;;;;;;;;5051299;28;20449;-74
2023/01/04 04:35:21;;;;;;;4.83;4.43;;;;;;;;;;5051289;28;20479;-74
2023/01/04 04:37:48;;;;;;;4.03;3.73;;;;;;;;;;5051129;28;20466;-75
2023/01/04 04:42:57;;;;;;;4.97;3.90;;;;;;;;;;5050703;28;20827;-74
2023/01/04 04:45:24;;;;;;;4.30;4.00;;;;;;;;;;5051113;28;20437;-75
2023/01/04 04:47:51;;;;;;;3.77;3.47;;;;;;;;;;5049660;28;20544;-75
2023/01/04 04:50:18;;;;;;;4.00;3.73;;;;;;;;;;5052105;28;20434;-74
2023/01/04 04:52:45;;;;;;;3.97;3.67;;;;;;;;;;5069074;28;20441;-73
2023/01/04 04:55:12;;;;;;;4.17;3.87;;;;;;;;;;5090815;28;20445;-74
2023/01/04 04:57:40;;;;;;;4.67;4.33;;;;;;;;;;5074982;28;20483;-74
2023/01/04 05:00:08;;;;;;;4.10;3.70;;;;;;;;;;5071404;28;20447;-75
2023/01/04 05:02:35;;;;;;;4.20;3.90;;;;;;;;;;5051850;28;20819;-75
2023/01/04 05:05:02;;;;;;;3.47;3.27;;;;;;;;;;5051450;28;20453;-74
2023/01/04 05:07:29;;;;;;;4.53;4.10;;;;;;;;;;5051022;28;20473;-75
2023/01/04 05:09:56;;;;;;;4.13;3.83;;;;;;;;;;5051183;28;20445;-74
2023/01/04 05:15:10;;;;;;;3.70;3.40;;;;;;;;;;5041258;28;20421;-74
2023/01/04 05:17:37;;;;;;;3.20;3.00;;;;;;;;;;5030944;28;21033;-73
2023/01/04 05:20:04;;;;;;;3.67;3.37;;;;;;;;;;5031193;28;20450;-74
2023/01/04 05:22:31;;;;;;;3.60;3.40;;;;;;;;;;5030953;28;20442;-74
2023/01/04 05:24:58;;;;;;;4.20;3.80;;;;;;;;;;5031138;28;20443;-74
2023/01/04 05:27:25;;;;;;;4.17;3.87;;;;;;;;;;5031333;28;20477;-74
2023/01/04 05:32:38;;;;;;;3.63;3.33;;;;;;;;;;5031177;28;20406;-73
2023/01/04 05:35:06;;;;;;;3.80;3.50;;;;;;;;;;5031343;28;20450;-74
2023/01/04 05:37:33;;;;;;;4.00;3.60;;;;;;;;;;5030986;28;20489;-74
2023/01/04 05:40:00;;;;;;;3.10;2.90;;;;;;;;;;5058785;28;20852;-74
2023/01/04 05:42:27;;;;;;;3.20;3.00;;;;;;;;;;5070286;28;20936;-74
2023/01/04 05:44:56;;;;;;;3.63;3.43;;;;;;;;;;5070921;28;20873;-74
2023/01/04 05:47:24;;;;;;;3.90;3.60;;;;;;;;;;5070622;28;20465;-74
2023/01/04 05:49:52;;;;;;;3.63;3.33;;;;;;;;;;5070697;28;20495;-75
2023/01/04 05:52:19;;;;;;;5.33;3.77;;;;;;;;;;5070600;28;20456;-74
2023/01/04 05:54:46;;;;;;;3.70;3.40;;;;;;;;;;5070159;28;20441;-76
2023/01/04 05:57:14;;;;;;;3.83;3.53;;;;;;;;;;5069518;28;20488;-74
2023/01/04 05:59:41;;;;;;;4.00;3.70;;;;;;;;;;5070260;28;20823;-74
2023/01/04 06:02:08;;;;;;;3.33;3.13;;;;;;;;;;5070140;28;20831;-74
2023/01/04 06:04:35;;;;;;;3.23;3.03;;;;;;;;;;5070324;28;20460;-75
2023/01/04 06:07:04;;;;;;;3.47;3.17;;;;;;;;;;5070462;28;20510;-74
2023/01/04 06:09:31;;;;;;;4.10;3.63;;;;;;;;;;5070430;28;20451;-75
2023/01/04 06:11:58;;;;;;;4.03;3.73;;;;;;;;;;5070442;28;20440;-75
2023/01/04 06:14:25;;;;;;;3.23;3.03;;;;;;;;;;5066287;28;20437;-75
2023/01/04 06:16:52;;;;;;;3.07;2.87;;;;;;;;;;5050259;28;20469;-75
2023/01/04 06:19:19;;;;;;;3.33;3.13;;;;;;;;;;5049964;28;20488;-75
2023/01/04 06:21:46;;;;;;;3.90;3.47;;;;;;;;;;5049712;28;20454;-75
2023/01/04 06:24:15;;;;;;;3.70;3.40;;;;;;;;;;5049231;28;20472;-74
2023/01/04 06:26:42;;;;;;;3.30;3.10;;;;;;;;;;5049868;28;20454;-74
2023/01/04 06:29:09;;;;;;;3.20;2.90;;;;;;;;;;5050193;28;20870;-74
2023/01/04 06:31:36;;;;;;;3.30;3.10;;;;;;;;;;5051249;28;20457;-74
2023/01/04 06:34:03;;;;;;;3.17;2.90;;;;;;;;;;5051786;28;20978;-75
2023/01/04 06:36:30;;;;;;;5.10;3.00;;;;;;;;;;5049705;28;20474;-74
2023/01/04 06:38:57;;;;;;;3.63;3.33;;;;;;;;;;5049536;28;20461;-74
2023/01/04 06:41:26;;;;;;;3.90;3.50;;;;;;;;;;5050247;28;20437;-74
2023/01/04 06:43:53;;;;;;;3.63;3.33;;;;;;;;;;5050550;28;20453;-73
2023/01/04 06:46:20;;;;;;;3.40;3.10;;;;;;;;;;5052210;28;20448;-75
2023/01/04 06:48:47;;;;;;;3.03;2.60;;;;;;;;;;5050806;28;21019;-74
2023/01/04 06:51:14;;;;;;;3.00;2.80;;;;;;;;;;5051376;28;20452;-75
2023/01/04 06:53:41;;;;;;;2.77;2.57;;;;;;;;;;5052279;28;20446;-74
2023/01/04 06:56:08;;;;;;;3.17;2.97;;;;;;;;;;5051162;28;20571;-74
2023/01/04 06:58:37;;;;;;;3.10;2.83;;;;;;;;;;5048818;28;20544;-75
2023/01/04 07:01:04;;;;;;;3.43;3.13;;;;;;;;;;5049470;28;20453;-75
2023/01/04 07:03:31;;;;;;;3.07;2.77;;;;;;;;;;5049269;28;20453;-74
2023/01/04 07:05:58;;;;;;;3.17;2.97;;;;;;;;;;5049469;28;20461;-74
2023/01/04 07:08:25;;;;;;;4.80;3.03;;;;;;;;;;5051830;28;20847;-75
2023/01/04 07:10:52;;;;;;;3.47;3.27;;;;;;;;;;5053093;28;20933;-75
2023/01/04 07:13:19;;;;;;;4.03;3.73;;;;;;;;;;5053428;28;20452;-74
2023/01/04 07:15:48;;;;;;;3.13;2.93;;;;;;;;;;5038489;28;20474;-75
2023/01/04 07:18:15;;;;;;;7.00;3.93;;;;;;;;;;5032928;28;20494;-75
2023/01/04 07:20:42;;;;;;;3.80;3.50;;;;;;;;;;5033257;28;20863;-74
2023/01/04 07:23:09;;;;;;;3.63;3.33;;;;;;;;;;5033436;28;20445;-74
2023/01/04 07:25:36;;;;;;;2.87;2.67;;;;;;;;;;5033176;28;20442;-75
2023/01/04 07:28:04;;;;;;;2.73;2.53;;;;;;;;;;5033248;28;20466;-75
2023/01/04 07:30:31;;;;;;;3.77;3.47;;;;;;;;;;5033507;28;20438;-75
2023/01/04 07:32:59;;;;;;;2.83;2.63;;;;;;;;;;5033234;28;20450;-75
2023/01/04 07:35:26;;;;;;;2.33;2.20;;;;;;;;;;5033218;28;20821;-75
2023/01/04 07:37:53;;;;;;;2.43;2.10;;;;;;;;;;5033035;28;20497;-75
2023/01/04 07:40:20;;;;;;;2.37;2.27;;;;;;;;;;5032803;28;20454;-74
2023/01/04 07:42:55;;;;;;;2.83;2.60;;;;;;;;;;5032734;28;20442;-74
2023/01/04 07:45:22;;;;;;;2.93;2.67;;;;;;;;;;5033062;28;20905;-75
2023/01/04 07:47:49;;;;;;;3.00;2.70;;;;;;;;;;5032884;28;20982;-74
2023/01/04 07:50:18;;;;;;;2.70;2.50;;;;;;;;;;5032802;28;20477;-75
2023/01/04 07:52:45;;;;;;;2.43;2.33;;;;;;;;;;5032734;28;20446;-74
2023/01/04 07:55:12;;;;;;;2.60;2.40;;;;;;;;;;5033014;28;20540;-73
2023/01/04 07:57:39;;;;;;;2.03;1.93;;;;;;;;;;5032584;28;20481;-73
2023/01/04 08:00:06;;;;;;;2.47;2.03;;;;;;;;;;5033035;28;20462;-75
2023/01/04 08:02:33;;;;;;;2.43;2.03;;;;;;;;;;5032329;28;20799;-74
2023/01/04 08:05:00;;;;;;;2.97;2.30;;;;;;;;;;5031693;28;20435;-75
2023/01/04 08:07:29;;;;;;;1.73;1.63;;;;;;;;;;5029887;28;20463;-75
2023/01/04 08:09:56;;;;;;;3.00;2.80;;;;;;;;;;5030151;28;20447;-75
2023/01/04 08:12:23;;;;;;;10.00;3.37;;;;;;;;;;5029885;28;20450;-74
2023/01/04 08:14:50;;;;;;;3.27;3.07;;;;;;;;;;5036912;28;20453;-74
2023/01/04 08:17:17;;;;;;;3.43;3.23;;;;;;;;;;5049690;28;20488;-75
2023/01/04 08:19:45;;;;;;;3.77;3.40;;;;;;;;;;5049594;28;20434;-75
2023/01/04 08:22:12;;;;;;;4.47;3.93;;;;;;;;;;5050331;28;20445;-74
2023/01/04 08:24:40;;;;;;;3.73;3.43;;;;;;;;;;5051904;28;20460;-73
2023/01/04 08:27:07;;;;;;;4.30;3.90;;;;;;;;;;5051303;28;20457;-75
2023/01/04 08:29:34;;;;;;;5.93;4.10;;;;;;;;;;5051766;28;20816;-75
2023/01/04 08:32:01;;;;;;;5.63;4.63;;;;;;;;;;5051340;28;20437;-76
2023/01/04 08:34:29;;;;;;;4.00;3.70;;;;;;;;;;5051099;28;20449;-74
2023/01/04 08:36:56;;;;;;;4.83;3.60;;;;;;;;;;5050860;28;20545;-74
2023/01/04 08:39:23;;;;;;;5.00;4.50;;;;;;;;;;5050978;28;20543;-74
2023/01/04 08:41:52;;;;;;;6.40;3.90;;;;;;;;;;5050343;28;20824;-75
2023/01/04 08:44:20;;;;;;;3.50;3.20;;;;;;;;;;5049856;28;20442;-74
2023/01/04 08:46:47;;;;;;;2.90;2.10;;;;;;;;;;5050067;28;20450;-73
2023/01/04 08:49:15;;;;;;;2.10;1.90;;;;;;;;;;5049721;28;20467;-74
2023/01/04 08:51:42;;;;;;;2.10;2.00;;;;;;;;;;5049603;28;20468;-75
2023/01/04 08:54:09;;;;;;;4.27;1.93;;;;;;;;;;5049006;28;20436;-75
2023/01/04 08:56:36;;;;;;;2.03;1.60;;;;;;;;;;5049742;28;20839;-75
2023/01/04 08:59:05;;;;;;;1.87;1.77;;;;;;;;;;5049269;28;20496;-75
2023/01/04 09:01:32;;;;;;;1.47;1.37;;;;;;;;;;5049663;28;20476;-75
2023/01/04 09:03:59;;;;;;;1.60;1.50;;;;;;;;;;5049553;28;20824;-75
2023/01/04 09:06:27;;;;;;;2.70;1.20;;;;;;;;;;5049763;28;20889;-75
2023/01/04 09:08:54;;;;;;;3.80;1.70;;;;;;;;;;5049859;28;20462;-75
2023/01/04 09:11:22;;;;;;;2.10;1.77;;;;;;;;;;5050833;28;20453;-74
2023/01/04 09:13:49;;;;;;;1.73;1.63;;;;;;;;;;5049025;28;20495;-74
2023/01/04 09:16:20;;;;;;;2.00;1.90;;;;;;;;;;5030856;28;20449;-75
2023/01/04 09:18:47;;;;;;;2.13;1.93;;;;;;;;;;5029144;28;20993;-74
2023/01/04 09:21:16;;;;;;;2.57;2.00;;;;;;;;;;5030177;28;20450;-75
2023/01/04 09:23:43;;;;;;;1.63;1.53;;;;;;;;;;5032561;28;20443;-74
2023/01/04 09:26:11;;;;;;;1.80;1.70;;;;;;;;;;5040096;28;20851;-74
2023/01/04 09:28:38;;;;;;;2.30;2.10;;;;;;;;;;5030680;28;20455;-74
2023/01/04 09:31:06;;;;;;;1.73;1.63;;;;;;;;;;5028121;28;20449;-74
2023/01/04 09:33:34;;;;;;;1.50;1.40;;;;;;;;;;5029316;28;20461;-75
2023/01/04 09:36:03;;;;;;;4.03;1.70;;;;;;;;;;5046966;28;20458;-75
2023/01/04 09:38:30;;;;;;;1.77;1.67;;;;;;;;;;5043912;28;20490;-74
2023/01/04 09:41:01;;;;;;;1.80;1.70;;;;;;;;;;5044520;28;20485;-75
2023/01/04 09:43:29;;;;;;;1.27;1.27;;;;;;;;;;5044130;28;20442;-74
2023/01/04 09:46:01;;;;;;;2.13;1.73;;;;;;;;;;5038564;28;20450;-76
2023/01/04 09:48:29;;;;;;;1.50;1.40;;;;;;;;;;5035981;28;20466;-75
2023/01/04 09:50:59;;;;;;;1.80;1.70;;;;;;;;;;5029159;28;20450;-76
2023/01/04 09:53:29;;;;;;;2.37;1.93;;;;;;;;;;5028715;28;20453;-75
2023/01/04 09:55:57;;;;;;;4.30;3.90;;;;;;;;;;5028827;28;20806;-75
2023/01/04 09:58:27;;;;;;;2.13;1.90;;;;;;;;;;5028846;28;20486;-74
2023/01/04 10:00:58;;;;;;;1.83;1.57;;;;;;;;;;5028778;28;20811;-74
2023/01/04 10:03:28;;;;;;;1.63;1.53;;;;;;;;;;5028415;28;20967;-76
2023/01/04 10:05:56;;;;;;;2.50;1.80;;;;;;;;;;5029644;28;20449;-75
2023/01/04 10:08:24;;;;;;;1.30;1.20;;;;;;;;;;5029057;28;20467;-76
2023/01/04 10:10:55;;;;;;;1.60;1.50;;;;;;;;;;5029277;28;20450;-76
2023/01/04 10:13:30;;;;;;;1.67;1.40;;;;;;;;;;5028550;28;20809;-74
2023/01/04 10:16:03;;;;;;;2.87;2.60;;;;;;;;;;5045629;28;20452;-76
2023/01/04 10:18:33;;;;;;;2.90;1.77;;;;;;;;;;5048981;28;20536;-75
2023/01/04 10:21:21;;;;;;;2.13;1.40;;;;;;;;;;5049238;28;20454;-75
2023/01/04 10:23:55;;;;;;;2.33;1.50;;;;;;;;;;5043904;28;20457;-76
2023/01/04 10:26:25;;;;;;;1.20;1.20;;;;;;;;;;5049544;28;20444;-74
2023/01/04 10:28:57;;;;;;;1.80;1.50;;;;;;;;;;5048637;28;20519;-76
2023/01/04 10:31:28;;;;;;;1.50;1.50;;;;;;;;;;5049221;28;20852;-74
2023/01/04 10:33:59;;;;;;;1.43;1.43;;;;;;;;;;5048851;28;20511;-76
2023/01/04 10:36:30;;;;;;;2.10;1.43;;;;;;;;;;5050334;28;20446;-76
2023/01/04 10:39:00;;;;;;;3.47;1.30;;;;;;;;;;5048441;28;20485;-75
2023/01/04 10:41:29;;;;;;;1.60;1.50;;;;;;;;;;5047851;28;20444;-75
2023/01/04 10:44:00;;;;;;;1.30;1.20;;;;;;;;;;5044964;28;20446;-76
2023/01/04 10:46:29;;;;;;;1.63;1.30;;;;;;;;;;5034682;28;20445;-74
2023/01/04 10:49:01;;;;;;;6.83;1.33;;;;;;;;;;5034581;28;20524;-76
2023/01/04 10:51:31;;;;;;;1.73;1.37;;;;;;;;;;5034848;28;20818;-76
2023/01/04 10:54:01;;;;;;;2.20;1.43;;;;;;;;;;5034232;28;20833;-74
2023/01/04 10:56:31;;;;;;;1.40;1.30;;;;;;;;;;5034461;28;20457;-74
2023/01/04 10:59:01;;;;;;;1.50;1.40;;;;;;;;;;5033881;28;20482;-75
2023/01/04 11:01:30;;;;;;;2.63;1.63;;;;;;;;;;5034319;28;20450;-75
2023/01/04 11:03:59;;;;;;;1.20;1.10;;;;;;;;;;5034106;28;20515;-74
2023/01/04 11:06:28;;;;;;;2.03;1.83;;;;;;;;;;5034382;28;20438;-75
2023/01/04 11:08:58;;;;;;;1.70;1.27;;;;;;;;;;5034075;28;20458;-75
2023/01/04 11:11:28;;;;;;;1.97;1.60;;;;;;;;;;5033997;28;20446;-75
2023/01/04 11:13:55;;;;;;;1.27;1.20;;;;;;;;;;5033996;28;20450;-75
2023/01/04 11:16:22;;;;;;;1.80;1.70;;;;;;;;;;5034439;28;20800;-75
2023/01/04 11:18:50;;;;;;;2.97;1.90;;;;;;;;;;5034178;28;20981;-75
2023/01/04 11:21:19;;;;;;;2.40;2.00;;;;;;;;;;5037485;28;20466;-74
2023/01/04 11:23:46;;;;;;;1.40;1.30;;;;;;;;;;5039710;28;20469;-75
2023/01/04 11:26:15;;;;;;;2.47;1.70;;;;;;;;;;5040977;28;20442;-75
2023/01/04 11:28:45;;;;;;;2.30;1.60;;;;;;;;;;5049698;28;20469;-76
2023/01/04 11:31:16;;;;;;;1.37;1.33;;;;;;;;;;5061029;28;20836;-76
2023/01/04 11:33:54;;;;;;;1.90;1.53;;;;;;;;;;5059953;28;20452;-75
2023/01/04 11:36:38;;;;;;;2.07;1.50;;;;;;;;;;5061287;28;20441;-74
2023/01/04 11:39:06;;;;;;;1.50;1.40;;;;;;;;;;5057457;28;20493;-74
2023/01/04 11:41:33;;;;;;;1.50;1.40;;;;;;;;;;5057439;28;20438;-74
2023/01/04 11:44:03;;;;;;;2.20;2.10;;;;;;;;;;5056145;28;20457;-75
2023/01/04 11:46:32;;;;;;;1.47;1.43;;;;;;;;;;5056292;28;20441;-75
2023/01/04 11:49:00;;;;;;;1.63;1.50;;;;;;;;;;5056473;28;20461;-76
2023/01/04 11:51:38;;;;;;;2.10;1.60;;;;;;;;;;5057952;28;20523;-75
2023/01/04 11:54:07;;;;;;;2.10;1.83;;;;;;;;;;5054539;28;20477;-76
2023/01/04 11:56:34;;;;;;;3.07;2.07;;;;;;;;;;5054729;28;20453;-76
2023/01/04 11:59:11;;;;;;;2.40;1.73;;;;;;;;;;5053998;28;20477;-76
2023/01/04 12:01:39;;;;;;;1.80;1.50;;;;;;;;;;5054129;28;20469;-77
2023/01/04 12:04:11;;;;;;;2.17;1.97;;;;;;;;;;5051937;28;20473;-74
2023/01/04 12:06:42;;;;;;;1.67;1.57;;;;;;;;;;5052828;28;20769;-76
2023/01/04 12:09:13;;;;;;;2.37;1.63;;;;;;;;;;5054331;28;20537;-75
2023/01/04 12:11:42;;;;;;;1.70;1.60;;;;;;;;;;5053853;28;20453;-76
2023/01/04 12:14:15;;;;;;;1.50;1.40;;;;;;;;;;5052449;28;20452;-76
2023/01/04 12:16:45;;;;;;;3.17;1.80;;;;;;;;;;5052730;28;20449;-76
2023/01/04 12:19:15;;;;;;;2.80;2.60;;;;;;;;;;5055001;28;20477;-77
2023/01/04 12:21:44;;;;;;;1.10;1.00;;;;;;;;;;5054270;28;20434;-75
2023/01/04 12:24:15;;;;;;;2.20;1.80;;;;;;;;;;5052926;28;20450;-75
2023/01/04 12:26:43;;;;;;;1.83;1.73;;;;;;;;;;5053900;28;20457;-76
2023/01/04 12:29:29;;;;;;;1.40;1.30;;;;;;;;;;5054981;28;20496;-77
2023/01/04 12:32:18;;;;;;;1.53;1.33;;;;;;;;;;5058723;28;20457;-76
2023/01/04 12:34:46;;;;;;;1.50;1.40;;;;;;;;;;5061301;28;20948;-76
2023/01/04 12:37:35;;;;;;;1.70;1.60;;;;;;;;;;5057760;28;20440;-75
2023/01/04 12:40:02;;;;;;;2.17;1.50;;;;;;;;;;5062904;28;20488;-75
2023/01/04 12:42:29;;;;;;;1.93;1.83;;;;;;;;;;5059392;28;20866;-76
2023/01/04 12:45:14;;;;;;;2.17;1.83;;;;;;;;;;5057300;28;20532;-76
2023/01/04 12:51:01;;;;;;;1.37;1.37;;;;;;;;;;4998158;28;20823;-76
2023/01/04 12:53:46;;;;;;;2.13;1.37;;;;;;;;;;5055523;28;20946;-76
2023/01/04 12:56:13;;;;;;;3.90;1.57;;;;;;;;;;5055895;28;20456;-75
2023/01/04 12:58:41;;;;;;;1.00;1.00;;;;;;;;;;5054853;28;20489;-75
2023/01/04 13:01:09;;;;;;;1.33;1.27;;;;;;;;;;5055448;28;20850;-75
2023/01/04 13:03:44;;;;;;;1.70;1.60;;;;;;;;;;5055547;28;20445;-76
2023/01/04 13:06:12;;;;;;;1.80;1.70;;;;;;;;;;5054505;28;20448;-75
2023/01/04 13:08:40;;;;;;;1.53;1.43;;;;;;;;;;5053832;28;20875;-76
2023/01/04 13:11:14;;;;;;;1.73;1.63;;;;;;;;;;5054155;28;20442;-77
2023/01/04 13:13:44;;;;;;;1.60;1.43;;;;;;;;;;5054050;28;20461;-74
2023/01/04 13:16:17;;;;;;;1.23;1.20;;;;;;;;;;5052941;28;20468;-75
2023/01/04 13:18:48;;;;;;;1.53;1.43;;;;;;;;;;5054151;28;20821;-75
2023/01/04 13:21:17;;;;;;;1.50;1.33;;;;;;;;;;5052795;28;20481;-76
2023/01/04 13:23:49;;;;;;;1.50;1.40;;;;;;;;;;5053491;28;20434;-75
2023/01/04 13:26:34;;;;;;;2.50;1.50;;;;;;;;;;5053177;28;20886;-74
2023/01/04 13:29:09;;;;;;;3.23;1.20;;;;;;;;;;5051517;28;20484;-75
2023/01/04 13:31:41;;;;;;;1.63;1.23;;;;;;;;;;5053560;28;20444;-76
2023/01/04 13:34:15;;;;;;;1.07;1.07;;;;;;;;;;5051744;28;20500;-76
2023/01/04 13:36:43;;;;;;;2.70;1.37;;;;;;;;;;5053635;28;20480;-77
2023/01/04 13:39:12;;;;;;;1.50;1.40;;;;;;;;;;5052485;28;20489;-76
2023/01/04 13:41:45;;;;;;;1.57;1.47;;;;;;;;;;5052326;28;20537;-76
2023/01/04 13:44:19;;;;;;;1.30;1.30;;;;;;;;;;5052817;28;20446;-76
2023/01/04 13:46:46;;;;;;;2.27;1.50;;;;;;;;;;5051416;28;20441;-75
2023/01/04 13:49:16;;;;;;;1.97;1.30;;;;;;;;;;5050899;28;20457;-76
2023/01/04 13:51:43;;;;;;;1.30;1.23;;;;;;;;;;5051396;28;20497;-76
2023/01/04 13:54:18;;;;;;;1.60;1.50;;;;;;;;;;5050753;28;20447;-75
2023/01/04 13:56:45;;;;;;;1.00;1.00;;;;;;;;;;5050400;28;20468;-75
2023/01/04 13:59:12;;;;;;;1.53;1.13;;;;;;;;;;5050424;28;20852;-75
2023/01/04 14:01:43;;;;;;;1.77;1.20;;;;;;;;;;5050778;28;20472;-77
2023/01/04 14:04:15;;;;;;;1.60;1.17;;;;;;;;;;5049852;28;20450;-76
2023/01/04 14:06:44;;;;;;;0.90;0.90;;;;;;;;;;5050684;28;20453;-75
2023/01/04 14:09:16;;;;;;;1.13;1.00;;;;;;;;;;5050397;28;20457;-76
2023/01/04 14:12:00;;;;;;;1.50;1.20;;;;;;;;;;5050498;28;20523;-76
2023/01/04 14:14:32;;;;;;;1.33;1.10;;;;;;;;;;5049568;28;20485;-75
2023/01/04 14:17:09;;;;;;;1.40;1.30;;;;;;;;;;5049400;28;20449;-74
2023/01/04 14:19:48;;;;;;;1.33;0.90;;;;;;;;;;5050232;28;20483;-75
2023/01/04 14:22:34;;;;;;;1.00;1.00;;;;;;;;;;5050064;28;20444;-75
2023/01/04 14:25:02;;;;;;;0.90;0.90;;;;;;;;;;5049911;28;20441;-76
2023/01/04 14:27:33;;;;;;;0.97;0.97;;;;;;;;;;5049995;28;20554;-75
2023/01/04 14:30:00;;;;;;;2.13;1.50;;;;;;;;;;5051542;28;20429;-76
2023/01/04 14:32:27;;;;;;;1.07;1.00;;;;;;;;;;5051099;28;20442;-75
2023/01/04 14:34:56;;;;;;;1.50;1.40;;;;;;;;;;5050501;28;20449;-76
2023/01/04 14:37:23;;;;;;;1.53;1.10;;;;;;;;;;5062710;28;20468;-74
2023/01/04 14:39:50;;;;;;;1.70;1.20;;;;;;;;;;5064768;28;21048;-74
2023/01/04 14:42:27;;;;;;;1.73;1.40;;;;;;;;;;5054321;28;20452;-75
2023/01/04 14:44:54;;;;;;;1.43;1.30;;;;;;;;;;5054130;28;20440;-76
2023/01/04 14:47:22;;;;;;;1.83;1.20;;;;;;;;;;5050179;28;20469;-75
2023/01/04 14:49:49;;;;;;;1.30;1.20;;;;;;;;;;5050136;28;20438;-75
2023/01/04 14:52:21;;;;;;;1.67;1.20;;;;;;;;;;5049983;28;20457;-76
2023/01/04 14:54:49;;;;;;;3.07;1.67;;;;;;;;;;5050457;28;20442;-76
2023/01/04 14:57:16;;;;;;;1.70;1.23;;;;;;;;;;5050141;28;20460;-75
2023/01/04 14:59:44;;;;;;;2.03;1.33;;;;;;;;;;5050173;28;20495;-75
2023/01/04 15:02:11;;;;;;;1.07;1.07;;;;;;;;;;5049995;28;20504;-76
2023/01/04 15:04:39;;;;;;;1.33;1.00;;;;;;;;;;5049881;28;20448;-75
2023/01/04 15:07:06;;;;;;;0.93;0.93;;;;;;;;;;5055729;28;20437;-75
2023/01/04 15:09:35;;;;;;;1.30;1.20;;;;;;;;;;5058293;28;20483;-74
2023/01/04 15:12:02;;;;;;;2.47;1.03;;;;;;;;;;5050832;28;20988;-74
2023/01/04 15:14:29;;;;;;;1.30;1.20;;;;;;;;;;5046751;28;20439;-74
2023/01/04 15:16:56;;;;;;;1.50;1.40;;;;;;;;;;5030168;28;20453;-76
2023/01/04 15:19:23;;;;;;;1.50;1.40;;;;;;;;;;5030191;28;20482;-75
2023/01/04 15:21:50;;;;;;;1.23;1.10;;;;;;;;;;5030394;28;20445;-75
2023/01/04 15:24:17;;;;;;;1.47;1.30;;;;;;;;;;5030197;28;20541;-76
2023/01/04 15:26:47;;;;;;;2.17;1.60;;;;;;;;;;5032006;28;20453;-75
2023/01/04 15:29:14;;;;;;;3.27;1.37;;;;;;;;;;5033583;28;20488;-75
2023/01/04 15:31:42;;;;;;;4.73;1.20;;;;;;;;;;5035657;28;20443;-75
2023/01/04 15:34:09;;;;;;;1.30;1.30;;;;;;;;;;5035682;28;20813;-75
2023/01/04 15:36:39;;;;;;;1.10;1.10;;;;;;;;;;5033881;28;20453;-76
2023/01/04 15:39:06;;;;;;;1.37;1.27;;;;;;;;;;5033415;28;20553;-75
2023/01/04 15:44:19;;;;;;;1.50;1.40;;;;;;;;;;5032625;28;20430;-75
2023/01/04 15:46:46;;;;;;;1.63;1.20;;;;;;;;;;5033173;28;20443;-77
2023/01/04 15:49:13;;;;;;;1.33;1.20;;;;;;;;;;5034072;28;20462;-75